Portada
METAR-TAF:

METAR-TAF

Aeroports :

Aeroport de Kerry

Killarney, Irlanda

latitud: 52-10-51N, longitud: 9-31-26W, altitud: 34 m

Observació

L'informe es va fer fa 24 minuts, a les 08:30 UTC
Vent 11 kt del Oest/Sud-Oest
Temperatura 16°C
Humitat 94%
Pressió 1019 hPa
Visibilitat: 7000 m
Cel ennuvolat a una alçada de 900 ft
pluja, plugim

METAR: EIKY 220830Z 24011KT 7000 -RADZ BKN009 16/15 Q1019

Hora: 09:54 (08:54 UTC)

Pronòstic

L'informe es va fer fa 54 minuts, a les 08:00 UTC
Pronòstic vàlid del 22 a les 09 UTC al 22 a les 18 UTC
Vent 12 kt del Sud-Oest
Visibilitat 10 km o més
Cel ennuvolat a una alçada de 2000 ft
Temporalment
l' 22 a les 09 UTC al 22 a les 12 UTC
Cel ennuvolat a una alçada de 1200 ft
Probabilitat 30% :
Temporalment
l' 22 a les 10 UTC al 22 a les 18 UTC
Vent 12 kt del Sud-Oest amb ràfegues de 22 kt

TAF: EIKY 220800Z 2209/2218 23012KT 9999 BKN020 TEMPO 2209/2212 BKN012 PROB30 TEMPO 2210/2218 23012G22KT

Observacions i pronòstics meteorològics de més de 4000 aeroports (METAR i TAF).

Les estacions disponibles són els punts grocs i vermells al mapa.

Posi el ratolí al punt desitjat per veure el nom de l'estació.

Feu clic per veure les observacions i els pronòstics meteorològics.

Per canviar el mapa: feu clic els botons verds amb una creu de color negre per apropar; al botó verd amb un guió per allunyar la imatge; o en les fletxes verdes per a mapes adjacents.


METAR-TAF: